createdAt,value
2018-06-13T00:00:46.735Z,1013.87
2018-06-13T00:01:46.892Z,1013.85
2018-06-13T00:02:46.746Z,1013.84
2018-06-13T00:03:46.794Z,1013.86
2018-06-13T00:04:46.795Z,1013.9
2018-06-13T00:05:46.788Z,1013.92
2018-06-13T00:06:46.938Z,1013.91
2018-06-13T00:07:46.855Z,1013.93
2018-06-13T00:08:46.805Z,1013.94
2018-06-13T00:09:46.667Z,1013.96
2018-06-13T00:10:46.824Z,1014
2018-06-13T00:11:46.835Z,1014.02
2018-06-13T00:12:46.900Z,1014.06
2018-06-13T00:13:46.853Z,1014.06
2018-06-13T00:14:46.834Z,1014.05
2018-06-13T00:15:46.866Z,1014.07
2018-06-13T00:16:46.993Z,1014.08
2018-06-13T00:17:46.889Z,1014.05
2018-06-13T00:18:46.629Z,1014.03
2018-06-13T00:19:46.807Z,1013.98
2018-06-13T00:20:46.915Z,1014.06
2018-06-13T00:21:46.880Z,1014.02
2018-06-13T00:22:46.864Z,1014.01
2018-06-13T00:23:46.756Z,1014.04
2018-06-13T00:24:46.871Z,1014.02
2018-06-13T00:25:46.828Z,1014.03
2018-06-13T00:26:46.892Z,1014.03
2018-06-13T00:27:46.658Z,1014.06
2018-06-13T00:28:46.783Z,1014.08
2018-06-13T00:29:46.827Z,1014.09
2018-06-13T00:30:46.897Z,1014.09
2018-06-13T00:31:46.731Z,1014.08
2018-06-13T00:32:46.846Z,1014.13
2018-06-13T00:33:46.692Z,1014.09
2018-06-13T00:34:46.992Z,1014.1
2018-06-13T00:35:46.870Z,1014.11
2018-06-13T00:36:46.630Z,1014.11
2018-06-13T00:37:46.977Z,1014.12
2018-06-13T00:38:46.889Z,1014.11
2018-06-13T00:39:46.813Z,1014.12
2018-06-13T00:40:46.793Z,1014.09
2018-06-13T00:41:46.877Z,1014.12
2018-06-13T00:42:46.944Z,1014.1
2018-06-13T00:43:46.975Z,1014.13
2018-06-13T00:44:47.056Z,1014.12
2018-06-13T00:45:46.578Z,1014.13
2018-06-13T00:46:46.911Z,1014.19
2018-06-13T00:47:46.689Z,1014.22
2018-06-13T00:48:46.791Z,1014.21
2018-06-13T00:49:46.929Z,1014.21
2018-06-13T00:50:46.835Z,1014.2
2018-06-13T00:51:46.763Z,1014.18
2018-06-13T00:52:46.928Z,1014.19
2018-06-13T00:53:46.718Z,1014.17
2018-06-13T00:54:46.692Z,1014.18
2018-06-13T00:55:46.900Z,1014.23
2018-06-13T00:56:46.880Z,1014.17
2018-06-13T00:57:46.795Z,1014.16
2018-06-13T00:58:46.729Z,1014.16
2018-06-13T00:59:46.755Z,1014.14
2018-06-13T01:00:46.692Z,1014.16
2018-06-13T01:01:46.734Z,1014.14
2018-06-13T01:02:46.749Z,1014.15
2018-06-13T01:03:46.636Z,1014.16
2018-06-13T01:04:46.797Z,1014.16
2018-06-13T01:05:46.816Z,1014.17
2018-06-13T01:06:46.896Z,1014.17
2018-06-13T01:07:46.748Z,1014.16
2018-06-13T01:08:46.699Z,1014.13
2018-06-13T01:09:46.805Z,1014.17
2018-06-13T01:10:46.851Z,1014.17
2018-06-13T01:11:46.737Z,1014.15
2018-06-13T01:12:46.754Z,1014.16
2018-06-13T01:13:46.943Z,1014.16
2018-06-13T01:14:46.802Z,1014.16
2018-06-13T01:15:46.826Z,1014.15
2018-06-13T01:16:46.960Z,1014.13
2018-06-13T01:17:46.867Z,1014.16
2018-06-13T01:18:46.833Z,1014.11
2018-06-13T01:19:46.788Z,1014.14
2018-06-13T01:20:46.895Z,1014.17
2018-06-13T01:21:46.618Z,1014.16
2018-06-13T01:22:46.809Z,1014.19
2018-06-13T01:23:46.760Z,1014.14
2018-06-13T01:24:46.739Z,1014.19
2018-06-13T01:25:47.060Z,1014.19
2018-06-13T01:26:46.837Z,1014.21
2018-06-13T01:27:46.793Z,1014.17
2018-06-13T01:28:46.858Z,1014.15
2018-06-13T01:29:46.752Z,1014.14
2018-06-13T01:30:46.704Z,1014.15
2018-06-13T01:31:46.694Z,1014.11
2018-06-13T01:32:46.956Z,1014.08
2018-06-13T01:33:46.827Z,1014.11
2018-06-13T01:34:46.887Z,1014.08
2018-06-13T01:35:46.874Z,1014.07
2018-06-13T01:36:46.707Z,1014.06
2018-06-13T01:37:46.845Z,1014.05
2018-06-13T01:38:46.684Z,1014.03
2018-06-13T01:39:46.790Z,1014.06
2018-06-13T01:40:46.836Z,1014.04
2018-06-13T01:41:46.767Z,1014.05
2018-06-13T01:42:46.849Z,1014.02
2018-06-13T01:43:46.957Z,1014.05
2018-06-13T01:44:46.879Z,1014.07
2018-06-13T01:45:46.743Z,1014.11
2018-06-13T01:46:46.728Z,1014.1
2018-06-13T01:47:46.819Z,1014.13
2018-06-13T01:48:46.635Z,1014.11
2018-06-13T01:49:46.889Z,1014.08
2018-06-13T01:50:46.982Z,1014.11
2018-06-13T01:51:46.631Z,1014.14
2018-06-13T01:52:46.791Z,1014.12
2018-06-13T01:53:46.809Z,1014.11
2018-06-13T01:54:46.888Z,1014.13
2018-06-13T01:55:46.763Z,1014.13
2018-06-13T01:56:46.726Z,1014.14
2018-06-13T01:57:46.593Z,1014.1
2018-06-13T01:58:46.894Z,1014.14
2018-06-13T01:59:46.737Z,1014.14
2018-06-13T02:00:46.816Z,1014.18
2018-06-13T02:01:46.752Z,1014.15
2018-06-13T02:02:46.841Z,1014.14
2018-06-13T02:03:46.728Z,1014.13
2018-06-13T02:04:46.921Z,1014.12
2018-06-13T02:05:46.835Z,1014.15
2018-06-13T02:06:46.512Z,1014.13
2018-06-13T02:07:46.702Z,1014.09
2018-06-13T02:08:46.827Z,1014.08
2018-06-13T02:09:46.815Z,1014.09
2018-06-13T02:10:46.717Z,1014.09
2018-06-13T02:11:46.718Z,1014.1
2018-06-13T02:12:46.856Z,1014.09
2018-06-13T02:13:46.832Z,1014.08
2018-06-13T02:14:46.813Z,1014.07
2018-06-13T02:15:46.590Z,1014.08
2018-06-13T02:16:47.048Z,1014.06
2018-06-13T02:17:46.760Z,1014.1
2018-06-13T02:18:46.938Z,1014.13
2018-06-13T02:19:46.916Z,1014.09
2018-06-13T02:20:46.745Z,1014.11
2018-06-13T02:21:46.839Z,1014.09
2018-06-13T02:22:46.952Z,1014.09
2018-06-13T02:23:46.759Z,1014.17
2018-06-13T02:24:46.618Z,1014.15
2018-06-13T02:25:47.132Z,1014.21
2018-06-13T02:26:46.698Z,1014.14
2018-06-13T02:27:46.725Z,1014.15
2018-06-13T02:28:46.870Z,1014.15
2018-06-13T02:29:46.713Z,1014.14
2018-06-13T02:30:46.819Z,1014.15
2018-06-13T02:31:46.813Z,1014.16
2018-06-13T02:32:46.789Z,1014.13
2018-06-13T02:33:46.860Z,1014.16
2018-06-13T02:34:46.922Z,1014.15
2018-06-13T02:35:46.818Z,1014.12
2018-06-13T02:36:46.652Z,1014.15
2018-06-13T02:37:46.879Z,1014.14
2018-06-13T02:38:46.867Z,1014.14
2018-06-13T02:39:46.718Z,1014.16
2018-06-13T02:40:46.823Z,1014.18
2018-06-13T02:41:46.667Z,1014.16
2018-06-13T02:42:46.639Z,1014.2
2018-06-13T02:43:46.646Z,1014.21
2018-06-13T02:44:46.678Z,1014.23
2018-06-13T02:45:46.721Z,1014.23
2018-06-13T02:46:46.755Z,1014.21
2018-06-13T02:47:46.747Z,1014.24
2018-06-13T02:48:46.848Z,1014.22
2018-06-13T02:49:46.813Z,1014.19
2018-06-13T02:50:46.742Z,1014.19
2018-06-13T02:51:46.605Z,1014.17
2018-06-13T02:52:46.975Z,1014.23
2018-06-13T02:53:46.667Z,1014.26
2018-06-13T02:54:46.747Z,1014.24
2018-06-13T02:55:46.849Z,1014.24
2018-06-13T02:56:46.853Z,1014.31
2018-06-13T02:57:46.695Z,1014.27
2018-06-13T02:58:46.706Z,1014.26
2018-06-13T02:59:46.738Z,1014.24
2018-06-13T03:00:46.660Z,1014.3
2018-06-13T03:01:46.736Z,1014.24
2018-06-13T03:02:46.737Z,1014.23
2018-06-13T03:03:46.849Z,1014.26
2018-06-13T03:04:46.673Z,1014.23
2018-06-13T03:05:46.819Z,1014.26
2018-06-13T03:06:46.842Z,1014.25
2018-06-13T03:07:46.878Z,1014.25
2018-06-13T03:08:46.603Z,1014.26
2018-06-13T03:09:46.643Z,1014.23
2018-06-13T03:10:46.697Z,1014.3
2018-06-13T03:11:46.849Z,1014.28
2018-06-13T03:12:46.708Z,1014.3
2018-06-13T03:13:46.788Z,1014.3
2018-06-13T03:14:46.751Z,1014.34
2018-06-13T03:15:46.661Z,1014.27
2018-06-13T03:16:46.823Z,1014.31
2018-06-13T03:17:46.690Z,1014.28
2018-06-13T03:18:46.624Z,1014.31
2018-06-13T03:19:46.727Z,1014.28
2018-06-13T03:20:46.850Z,1014.33
2018-06-13T03:21:46.835Z,1014.3
2018-06-13T03:22:46.799Z,1014.31
2018-06-13T03:23:46.781Z,1014.29
2018-06-13T03:24:46.682Z,1014.31
2018-06-13T03:25:46.839Z,1014.32
2018-06-13T03:26:46.789Z,1014.34
2018-06-13T03:27:46.678Z,1014.31
2018-06-13T03:28:46.813Z,1014.35
2018-06-13T03:29:46.759Z,1014.38
2018-06-13T03:30:46.860Z,1014.34
2018-06-13T03:31:46.858Z,1014.36
2018-06-13T03:32:46.887Z,1014.38
2018-06-13T03:33:46.840Z,1014.39
2018-06-13T03:34:46.866Z,1014.41
2018-06-13T03:35:47.049Z,1014.42
2018-06-13T03:36:46.641Z,1014.43
2018-06-13T03:37:46.698Z,1014.46
2018-06-13T03:38:46.970Z,1014.49
2018-06-13T03:39:46.836Z,1014.49
2018-06-13T03:40:46.779Z,1014.47
2018-06-13T03:41:46.764Z,1014.51
2018-06-13T03:42:46.665Z,1014.54
2018-06-13T03:43:46.806Z,1014.56
2018-06-13T03:44:46.917Z,1014.57
2018-06-13T03:45:46.651Z,1014.57
2018-06-13T03:46:46.671Z,1014.58
2018-06-13T03:47:46.887Z,1014.59
2018-06-13T03:48:46.715Z,1014.58
2018-06-13T03:49:46.805Z,1014.55
2018-06-13T03:50:46.651Z,1014.63
2018-06-13T03:51:46.796Z,1014.64
2018-06-13T03:52:46.849Z,1014.62
2018-06-13T03:53:46.919Z,1014.61
2018-06-13T03:54:46.647Z,1014.6
2018-06-13T03:55:46.876Z,1014.64
2018-06-13T03:56:47.076Z,1014.6
2018-06-13T03:57:47.016Z,1014.6
2018-06-13T03:58:46.812Z,1014.6
2018-06-13T03:59:46.604Z,1014.58
2018-06-13T04:00:46.825Z,1014.58
2018-06-13T04:01:46.988Z,1014.58
2018-06-13T04:02:46.687Z,1014.56
2018-06-13T04:03:46.726Z,1014.56
2018-06-13T04:04:46.687Z,1014.59
2018-06-13T04:05:46.813Z,1014.61
2018-06-13T04:06:46.769Z,1014.61
2018-06-13T04:07:46.768Z,1014.63
2018-06-13T04:08:46.708Z,1014.63
2018-06-13T04:09:46.662Z,1014.62
2018-06-13T04:10:46.744Z,1014.64
2018-06-13T04:11:46.598Z,1014.68
2018-06-13T04:12:46.680Z,1014.66
2018-06-13T04:13:46.858Z,1014.67
2018-06-13T04:14:46.571Z,1014.66
2018-06-13T04:15:46.626Z,1014.7
2018-06-13T04:16:46.708Z,1014.72
2018-06-13T04:17:46.658Z,1014.73
2018-06-13T04:18:46.780Z,1014.72
2018-06-13T04:19:46.653Z,1014.77
2018-06-13T04:20:46.577Z,1014.7
2018-06-13T04:21:46.862Z,1014.74
2018-06-13T04:22:46.692Z,1014.76
2018-06-13T04:23:46.809Z,1014.76
2018-06-13T04:24:46.719Z,1014.78
2018-06-13T04:25:46.882Z,1014.77
2018-06-13T04:26:46.591Z,1014.79
2018-06-13T04:27:46.744Z,1014.73
2018-06-13T04:28:46.671Z,1014.79
2018-06-13T04:29:46.608Z,1014.78
2018-06-13T04:30:46.759Z,1014.76
2018-06-13T04:31:46.624Z,1014.75
2018-06-13T04:32:46.770Z,1014.77
2018-06-13T04:33:46.663Z,1014.81
2018-06-13T04:34:46.747Z,1014.83
2018-06-13T04:35:47.008Z,1014.84
2018-06-13T04:36:46.851Z,1014.87
2018-06-13T04:37:46.801Z,1014.87
2018-06-13T04:38:46.714Z,1014.92
2018-06-13T04:39:46.694Z,1014.91
2018-06-13T04:40:46.648Z,1014.95
2018-06-13T04:41:46.829Z,1015
2018-06-13T04:42:46.806Z,1014.97
2018-06-13T04:43:46.892Z,1014.98
2018-06-13T04:44:46.854Z,1015.03
2018-06-13T04:45:46.759Z,1015
2018-06-13T04:46:46.829Z,1015.04
2018-06-13T04:47:46.591Z,1015.05
2018-06-13T04:48:46.751Z,1014.98
2018-06-13T04:49:46.877Z,1015.04
2018-06-13T04:50:46.813Z,1015.02
2018-06-13T04:51:46.830Z,1015.04
2018-06-13T04:52:46.659Z,1015.09
2018-06-13T04:53:46.734Z,1015.07
2018-06-13T04:54:46.821Z,1015.03
2018-06-13T04:55:46.822Z,1015.04
2018-06-13T04:56:46.652Z,1015.08
2018-06-13T04:57:46.894Z,1015.02
2018-06-13T04:58:46.959Z,1015.02
2018-06-13T04:59:46.775Z,1015.02
2018-06-13T05:00:46.723Z,1015.06
2018-06-13T05:01:46.857Z,1015.05
2018-06-13T05:02:47.008Z,1015.04
2018-06-13T05:03:46.695Z,1015.02
2018-06-13T05:04:46.896Z,1015.08
2018-06-13T05:05:46.664Z,1015.05
2018-06-13T05:06:46.795Z,1015.08
2018-06-13T05:07:46.761Z,1015.11
2018-06-13T05:08:46.615Z,1015.15
2018-06-13T05:09:46.753Z,1015.14
2018-06-13T05:10:46.823Z,1015.15
2018-06-13T05:11:46.797Z,1015.18
2018-06-13T05:12:46.797Z,1015.17
2018-06-13T05:13:46.767Z,1015.22
2018-06-13T05:14:46.658Z,1015.19
2018-06-13T05:15:46.785Z,1015.21
2018-06-13T05:16:46.744Z,1015.23
2018-06-13T05:17:46.883Z,1015.22
2018-06-13T05:18:46.925Z,1015.26
2018-06-13T05:19:46.825Z,1015.23
2018-06-13T05:20:46.824Z,1015.29
2018-06-13T05:21:46.847Z,1015.27
2018-06-13T05:22:46.727Z,1015.27
2018-06-13T05:23:46.728Z,1015.29
2018-06-13T05:24:46.746Z,1015.25
2018-06-13T05:25:46.703Z,1015.26
2018-06-13T05:26:46.664Z,1015.25
2018-06-13T05:27:46.844Z,1015.25
2018-06-13T05:28:46.799Z,1015.25
2018-06-13T05:29:46.713Z,1015.26
2018-06-13T05:30:46.868Z,1015.32
2018-06-13T05:31:46.857Z,1015.3
2018-06-13T05:32:46.795Z,1015.3
2018-06-13T05:33:46.781Z,1015.31
2018-06-13T05:34:46.703Z,1015.35
2018-06-13T05:35:46.836Z,1015.33
2018-06-13T05:36:46.830Z,1015.32
2018-06-13T05:37:46.761Z,1015.35
2018-06-13T05:38:46.701Z,1015.34
2018-06-13T05:39:46.756Z,1015.36
2018-06-13T05:40:46.639Z,1015.34
2018-06-13T05:41:46.698Z,1015.36
2018-06-13T05:42:46.830Z,1015.4
2018-06-13T05:43:46.843Z,1015.36
2018-06-13T05:44:46.742Z,1015.39
2018-06-13T05:45:46.773Z,1015.43
2018-06-13T05:46:46.706Z,1015.41
2018-06-13T05:47:46.566Z,1015.42
2018-06-13T05:48:46.793Z,1015.43
2018-06-13T05:49:46.706Z,1015.43
2018-06-13T05:50:46.674Z,1015.48
2018-06-13T05:51:46.768Z,1015.47
2018-06-13T05:52:46.608Z,1015.46
2018-06-13T05:53:46.720Z,1015.49
2018-06-13T05:54:46.684Z,1015.57
2018-06-13T05:55:46.793Z,1015.49
2018-06-13T05:56:46.859Z,1015.57
2018-06-13T05:57:46.808Z,1015.58
2018-06-13T05:58:46.730Z,1015.61
2018-06-13T05:59:46.680Z,1015.61
2018-06-13T06:00:46.615Z,1015.64
2018-06-13T06:01:56.843Z,1015.7
2018-06-13T06:02:47.088Z,1015.62
2018-06-13T06:03:46.740Z,1015.66
2018-06-13T06:04:46.645Z,1015.68
2018-06-13T06:05:46.684Z,1015.69
2018-06-13T06:06:46.707Z,1015.68
2018-06-13T06:07:46.857Z,1015.65
2018-06-13T06:08:46.607Z,1015.65
2018-06-13T06:09:46.892Z,1015.65
2018-06-13T06:10:46.744Z,1015.65
2018-06-13T06:11:46.691Z,1015.65
2018-06-13T06:12:46.955Z,1015.67
2018-06-13T06:13:46.665Z,1015.64
2018-06-13T06:14:46.727Z,1015.68
2018-06-13T06:15:46.654Z,1015.69
2018-06-13T06:16:46.724Z,1015.73
2018-06-13T06:17:46.749Z,1015.74
2018-06-13T06:18:46.742Z,1015.7
2018-06-13T06:19:46.791Z,1015.74
2018-06-13T06:20:46.735Z,1015.77
2018-06-13T06:21:46.798Z,1015.74
2018-06-13T06:22:46.604Z,1015.76
2018-06-13T06:23:46.764Z,1015.77
2018-06-13T06:24:46.615Z,1015.77
2018-06-13T06:25:46.626Z,1015.81
2018-06-13T06:26:46.694Z,1015.79
2018-06-13T06:27:46.682Z,1015.8
2018-06-13T06:28:48.134Z,1015.85
2018-06-13T06:29:46.721Z,1015.85
2018-06-13T06:30:46.640Z,1015.87
2018-06-13T06:31:46.642Z,1015.88
2018-06-13T06:32:46.818Z,1015.91
2018-06-13T06:33:46.625Z,1015.89
2018-06-13T06:34:46.584Z,1015.88
2018-06-13T06:35:46.756Z,1015.9
2018-06-13T06:36:46.890Z,1015.87
2018-06-13T06:37:46.892Z,1015.9
2018-06-13T06:38:46.742Z,1015.94
2018-06-13T06:39:46.798Z,1015.88
2018-06-13T06:40:46.774Z,1015.94
2018-06-13T06:41:46.837Z,1015.88
2018-06-13T06:42:46.601Z,1015.85
2018-06-13T06:43:46.850Z,1015.88
2018-06-13T06:44:46.769Z,1015.84
2018-06-13T06:45:46.687Z,1015.88
2018-06-13T06:46:46.491Z,1015.89
2018-06-13T06:47:46.775Z,1015.9
2018-06-13T06:48:46.806Z,1015.91
2018-06-13T06:49:46.676Z,1015.9
2018-06-13T06:50:46.612Z,1015.87
2018-06-13T06:51:46.547Z,1015.88
2018-06-13T06:52:46.701Z,1015.9
2018-06-13T06:53:46.707Z,1015.91
2018-06-13T06:54:46.802Z,1015.87
2018-06-13T06:55:46.649Z,1015.91
2018-06-13T06:56:46.693Z,1015.95
2018-06-13T06:57:46.745Z,1015.99
2018-06-13T06:58:46.648Z,1016.02
2018-06-13T06:59:46.769Z,1016.01
2018-06-13T07:00:46.675Z,1016.01
2018-06-13T07:01:46.846Z,1016.03
2018-06-13T07:02:47.000Z,1016.06
2018-06-13T07:03:46.789Z,1016.12
2018-06-13T07:04:46.799Z,1016.09
2018-06-13T07:05:46.683Z,1016.1
2018-06-13T07:06:46.881Z,1016.11
2018-06-13T07:07:46.783Z,1016.13
2018-06-13T07:08:46.833Z,1016.1
2018-06-13T07:09:46.591Z,1016.13
2018-06-13T07:10:46.704Z,1016.12
2018-06-13T07:11:46.660Z,1016.11
2018-06-13T07:12:46.806Z,1016.12
2018-06-13T07:13:46.747Z,1016.16
2018-06-13T07:14:46.777Z,1016.15
2018-06-13T07:15:46.790Z,1016.13
2018-06-13T07:16:46.676Z,1016.18
2018-06-13T07:17:46.732Z,1016.21
2018-06-13T07:18:46.746Z,1016.21
2018-06-13T07:19:46.684Z,1016.22
2018-06-13T07:20:46.936Z,1016.24
2018-06-13T07:21:46.650Z,1016.25
2018-06-13T07:22:46.653Z,1016.23
2018-06-13T07:23:46.672Z,1016.24
2018-06-13T07:24:46.816Z,1016.22
2018-06-13T07:25:46.813Z,1016.16
2018-06-13T07:26:46.845Z,1016.21
2018-06-13T07:27:46.576Z,1016.22
2018-06-13T07:28:46.804Z,1016.19
2018-06-13T07:29:46.629Z,1016.19
2018-06-13T07:30:46.551Z,1016.17
2018-06-13T07:31:46.726Z,1016.16
2018-06-13T07:32:46.692Z,1016.18
2018-06-13T07:33:46.762Z,1016.19
2018-06-13T07:34:46.875Z,1016.2
2018-06-13T07:35:46.759Z,1016.27
2018-06-13T07:36:46.612Z,1016.24
2018-06-13T07:37:46.713Z,1016.25
2018-06-13T07:38:46.551Z,1016.28
2018-06-13T07:39:46.924Z,1016.25
2018-06-13T07:40:46.791Z,1016.26
2018-06-13T07:41:46.640Z,1016.24
2018-06-13T07:42:46.537Z,1016.25
2018-06-13T07:43:46.711Z,1016.26
2018-06-13T07:44:46.712Z,1016.27
2018-06-13T07:45:46.812Z,1016.3
2018-06-13T07:46:46.849Z,1016.31
2018-06-13T07:48:01.049Z,1016.27
2018-06-13T07:48:46.609Z,1016.31
2018-06-13T07:49:47.062Z,1016.29
2018-06-13T07:50:46.765Z,1016.27
2018-06-13T07:51:46.729Z,1016.28
2018-06-13T07:52:46.473Z,1016.28
2018-06-13T07:53:46.512Z,1016.27
2018-06-13T07:54:46.560Z,1016.24
2018-06-13T07:55:46.743Z,1016.26
2018-06-13T07:56:46.594Z,1016.23
2018-06-13T07:57:46.662Z,1016.23
2018-06-13T07:58:46.713Z,1016.21
2018-06-13T07:59:46.597Z,1016.2
2018-06-13T08:00:46.705Z,1016.22
2018-06-13T08:01:46.594Z,1016.2
2018-06-13T08:02:46.601Z,1016.14
2018-06-13T08:03:46.645Z,1016.22
2018-06-13T08:04:46.529Z,1016.26
2018-06-13T08:05:46.594Z,1016.25
2018-06-13T08:06:46.656Z,1016.26
2018-06-13T08:07:46.631Z,1016.29
2018-06-13T08:08:47.029Z,1016.29
2018-06-13T08:09:46.644Z,1016.31
2018-06-13T08:10:46.527Z,1016.3
2018-06-13T08:11:46.811Z,1016.31
2018-06-13T08:12:46.719Z,1016.32
2018-06-13T08:13:56.554Z,1016.31
2018-06-13T08:14:46.777Z,1016.33
2018-06-13T08:15:46.617Z,1016.35
2018-06-13T08:16:46.901Z,1016.36
2018-06-13T08:17:46.735Z,1016.37
2018-06-13T08:18:46.605Z,1016.36
2018-06-13T08:19:46.843Z,1016.38
2018-06-13T08:20:46.666Z,1016.38
2018-06-13T08:21:46.582Z,1016.38
2018-06-13T08:22:46.577Z,1016.4
2018-06-13T08:23:46.670Z,1016.38
2018-06-13T08:24:46.569Z,1016.43
2018-06-13T08:25:46.726Z,1016.39
2018-06-13T08:26:46.598Z,1016.4
2018-06-13T08:27:46.567Z,1016.43
2018-06-13T08:28:46.828Z,1016.42
2018-06-13T08:29:46.630Z,1016.48
2018-06-13T08:30:46.615Z,1016.48
2018-06-13T08:31:46.728Z,1016.41
2018-06-13T08:32:46.586Z,1016.41
2018-06-13T08:33:46.975Z,1016.43
2018-06-13T08:34:46.629Z,1016.41
2018-06-13T08:35:46.972Z,1016.41
2018-06-13T08:36:46.690Z,1016.35
2018-06-13T08:37:46.635Z,1016.37
2018-06-13T08:38:46.738Z,1016.39
2018-06-13T08:39:46.971Z,1016.37
2018-06-13T08:40:46.675Z,1016.39
2018-06-13T08:41:46.737Z,1016.34
2018-06-13T08:42:46.578Z,1016.37
2018-06-13T08:43:46.685Z,1016.37
2018-06-13T08:44:46.581Z,1016.39
2018-06-13T08:45:46.546Z,1016.37
2018-06-13T08:46:46.820Z,1016.45
2018-06-13T08:47:46.940Z,1016.44
2018-06-13T08:48:46.522Z,1016.47
2018-06-13T08:49:46.792Z,1016.48
2018-06-13T08:50:46.648Z,1016.5
2018-06-13T08:51:46.713Z,1016.51
2018-06-13T08:52:46.888Z,1016.5
2018-06-13T08:53:46.595Z,1016.51
2018-06-13T08:54:46.494Z,1016.49
2018-06-13T08:55:46.826Z,1016.5
2018-06-13T08:56:46.655Z,1016.46
2018-06-13T08:57:46.641Z,1016.47
2018-06-13T08:58:46.615Z,1016.49
2018-06-13T08:59:46.767Z,1016.46
2018-06-13T09:00:46.631Z,1016.44
2018-06-13T09:01:46.665Z,1016.43
2018-06-13T09:02:46.712Z,1016.46
2018-06-13T09:03:46.608Z,1016.48
2018-06-13T09:04:46.857Z,1016.49
2018-06-13T09:05:46.575Z,1016.52
2018-06-13T09:06:46.615Z,1016.51
2018-06-13T09:07:46.626Z,1016.51
2018-06-13T09:08:46.540Z,1016.53
2018-06-13T09:09:46.680Z,1016.57
2018-06-13T09:10:46.668Z,1016.59
2018-06-13T09:11:46.739Z,1016.57
2018-06-13T09:12:46.497Z,1016.58
2018-06-13T09:13:46.546Z,1016.54
2018-06-13T09:14:46.706Z,1016.58
2018-06-13T09:15:46.566Z,1016.55
2018-06-13T09:16:46.673Z,1016.54
2018-06-13T09:17:46.614Z,1016.53
2018-06-13T09:18:46.563Z,1016.57
2018-06-13T09:19:47.016Z,1016.55
2018-06-13T09:20:46.629Z,1016.55
2018-06-13T09:21:46.566Z,1016.55
2018-06-13T09:22:46.839Z,1016.56
2018-06-13T09:23:46.847Z,1016.57
2018-06-13T09:24:46.696Z,1016.57
2018-06-13T09:25:46.808Z,1016.58
2018-06-13T09:26:46.610Z,1016.6
2018-06-13T09:27:46.544Z,1016.65
2018-06-13T09:28:46.745Z,1016.64
2018-06-13T09:29:46.626Z,1016.65
2018-06-13T09:30:46.563Z,1016.63
2018-06-13T09:31:46.914Z,1016.63
2018-06-13T09:32:46.553Z,1016.62
2018-06-13T09:33:46.665Z,1016.61
2018-06-13T09:34:46.715Z,1016.63
2018-06-13T09:35:46.595Z,1016.67
2018-06-13T09:36:46.869Z,1016.64
2018-06-13T09:37:46.560Z,1016.71
2018-06-13T09:38:46.654Z,1016.7
2018-06-13T09:39:46.500Z,1016.71
2018-06-13T09:40:46.551Z,1016.73
2018-06-13T09:41:46.561Z,1016.8
2018-06-13T09:42:46.639Z,1016.74
2018-06-13T09:43:46.591Z,1016.72
2018-06-13T09:44:46.757Z,1016.82
2018-06-13T09:45:46.621Z,1016.85
2018-06-13T09:46:49.267Z,1016.85
2018-06-13T09:47:46.535Z,1016.81
2018-06-13T09:48:56.525Z,1016.86
2018-06-13T09:49:46.541Z,1016.88
2018-06-13T09:50:46.730Z,1016.88
2018-06-13T09:51:46.661Z,1016.91
2018-06-13T09:52:46.800Z,1016.93
2018-06-13T09:53:46.488Z,1017.01
2018-06-13T09:54:46.812Z,1016.95
2018-06-13T09:55:46.650Z,1017.02
2018-06-13T09:56:46.861Z,1016.95
2018-06-13T09:57:46.660Z,1016.99
2018-06-13T09:58:46.647Z,1016.99
2018-06-13T09:59:46.699Z,1016.96
2018-06-13T10:00:46.575Z,1017
2018-06-13T10:01:47.105Z,1017.02
2018-06-13T10:02:46.577Z,1016.95
2018-06-13T10:03:46.747Z,1016.97
2018-06-13T10:04:46.755Z,1016.95
2018-06-13T10:05:46.636Z,1016.97
2018-06-13T10:06:46.754Z,1016.95
2018-06-13T10:07:46.747Z,1016.97
2018-06-13T10:08:47.505Z,1016.95
2018-06-13T10:09:46.641Z,1016.92
2018-06-13T10:10:46.670Z,1016.96
2018-06-13T10:11:46.699Z,1016.92
2018-06-13T10:12:46.590Z,1016.98
2018-06-13T10:13:46.711Z,1016.98
2018-06-13T10:14:46.551Z,1016.97
2018-06-13T10:15:46.605Z,1017.02
2018-06-13T10:16:46.612Z,1016.98
2018-06-13T10:17:46.758Z,1017
2018-06-13T10:18:46.707Z,1016.96
2018-06-13T10:19:46.688Z,1016.98
2018-06-13T10:20:46.669Z,1016.99
2018-06-13T10:21:46.780Z,1017.02
2018-06-13T10:22:46.451Z,1017
2018-06-13T10:23:46.588Z,1017
2018-06-13T10:24:46.584Z,1017.06
2018-06-13T10:25:46.760Z,1017.07
2018-06-13T10:26:46.777Z,1017.06
2018-06-13T10:27:46.568Z,1017.11
2018-06-13T10:28:46.506Z,1017.11
2018-06-13T10:29:46.719Z,1017.1
2018-06-13T10:30:46.721Z,1017.14
2018-06-13T10:31:46.533Z,1017.1
2018-06-13T10:32:46.766Z,1017.09
2018-06-13T10:33:46.562Z,1017.09
2018-06-13T10:34:46.704Z,1017.15
2018-06-13T10:35:46.655Z,1017.13
2018-06-13T10:36:46.738Z,1017.12
2018-06-13T10:37:46.721Z,1017.15
2018-06-13T10:38:46.696Z,1017.17
2018-06-13T10:39:46.635Z,1017.18
2018-06-13T10:40:46.610Z,1017.16
2018-06-13T10:41:46.675Z,1017.15
2018-06-13T10:42:46.463Z,1017.24
2018-06-13T10:43:46.653Z,1017.23
2018-06-13T10:44:46.579Z,1017.25
2018-06-13T10:45:46.580Z,1017.25
2018-06-13T10:46:46.657Z,1017.23
2018-06-13T10:47:46.675Z,1017.21
2018-06-13T10:48:46.644Z,1017.23
2018-06-13T10:49:46.651Z,1017.23
2018-06-13T10:50:46.786Z,1017.25
2018-06-13T10:51:46.681Z,1017.27
2018-06-13T10:52:46.655Z,1017.23
2018-06-13T10:53:46.666Z,1017.23
2018-06-13T10:54:46.734Z,1017.25
2018-06-13T10:55:46.505Z,1017.2
2018-06-13T10:56:46.741Z,1017.23
2018-06-13T10:57:46.645Z,1017.24
2018-06-13T10:58:46.599Z,1017.22
2018-06-13T10:59:46.719Z,1017.26
2018-06-13T11:00:46.702Z,1017.23
2018-06-13T11:01:46.948Z,1017.25
2018-06-13T11:02:46.491Z,1017.26
2018-06-13T11:03:46.586Z,1017.3
2018-06-13T11:04:46.892Z,1017.25
2018-06-13T11:05:46.776Z,1017.25
2018-06-13T11:06:46.720Z,1017.28
2018-06-13T11:07:46.422Z,1017.26
2018-06-13T11:08:46.563Z,1017.26
2018-06-13T11:09:46.624Z,1017.3
2018-06-13T11:10:46.607Z,1017.29
2018-06-13T11:11:46.863Z,1017.25
2018-06-13T11:12:46.727Z,1017.27
2018-06-13T11:13:46.780Z,1017.29
2018-06-13T11:14:46.814Z,1017.32
2018-06-13T11:15:46.597Z,1017.35
2018-06-13T11:16:46.491Z,1017.34
2018-06-13T11:17:46.575Z,1017.36
2018-06-13T11:18:46.599Z,1017.39
2018-06-13T11:19:46.722Z,1017.33
2018-06-13T11:20:46.697Z,1017.33
2018-06-13T11:21:46.664Z,1017.37
2018-06-13T11:22:46.530Z,1017.35
2018-06-13T11:23:46.755Z,1017.37
2018-06-13T11:24:46.767Z,1017.43
2018-06-13T11:25:46.516Z,1017.41
2018-06-13T11:26:46.545Z,1017.37
2018-06-13T11:27:46.637Z,1017.36
2018-06-13T11:28:46.578Z,1017.38
2018-06-13T11:29:46.630Z,1017.4
2018-06-13T11:30:46.707Z,1017.34
2018-06-13T11:31:46.496Z,1017.35
2018-06-13T11:32:46.625Z,1017.35
2018-06-13T11:33:46.679Z,1017.33
2018-06-13T11:34:46.388Z,1017.33
2018-06-13T11:35:46.611Z,1017.29
2018-06-13T11:36:46.700Z,1017.37
2018-06-13T11:37:46.598Z,1017.3
2018-06-13T11:38:46.585Z,1017.36
2018-06-13T11:39:46.686Z,1017.34
2018-06-13T11:40:46.536Z,1017.29
2018-06-13T11:41:46.513Z,1017.33
2018-06-13T11:42:46.663Z,1017.34
2018-06-13T11:43:46.474Z,1017.33
2018-06-13T11:44:46.542Z,1017.42
2018-06-13T11:45:46.904Z,1017.44
2018-06-13T11:46:46.620Z,1017.38
2018-06-13T11:47:46.680Z,1017.31
2018-06-13T11:48:46.630Z,1017.4
2018-06-13T11:49:46.730Z,1017.38
2018-06-13T11:50:46.625Z,1017.37
2018-06-13T11:51:46.900Z,1017.4
2018-06-13T11:52:46.601Z,1017.48
2018-06-13T11:53:46.646Z,1017.41
2018-06-13T11:54:46.565Z,1017.4
2018-06-13T11:55:46.630Z,1017.44
2018-06-13T11:56:46.618Z,1017.39
2018-06-13T11:57:46.806Z,1017.42
2018-06-13T11:58:46.748Z,1017.43
2018-06-13T11:59:46.954Z,1017.4
2018-06-13T12:00:46.726Z,1017.45
2018-06-13T12:01:46.646Z,1017.4
2018-06-13T12:02:46.825Z,1017.44
2018-06-13T12:03:46.655Z,1017.4
2018-06-13T12:04:46.639Z,1017.44
2018-06-13T12:05:46.759Z,1017.46
2018-06-13T12:06:46.625Z,1017.42
2018-06-13T12:07:46.648Z,1017.43
2018-06-13T12:08:46.747Z,1017.42